Hlavní strana
METAR-TAF:

METAR-TAF

Letiště :

Angoon, Aljaška, Spojené státy americké

zeměpisná šířka: 57-30N, zeměpisná délka: 134-35W, výška: 0 m

Aktuální stav počasí

Zpráva byla vytvořena před 17 minutami, v 02:56 UTC
Severoseverovýchodní vítr 6 kt
Teplota -4°C
Vlhkost vzduchu 63%
Tlak 1013 hPa
Viditelnost: 16.1 km
Jasno

METAR: PAGN 160256Z AUTO 03006KT 10SM CLR M04/M10 A2992 RMK AO2 SLP122 T10391100 53024 FZRANO

Čas: 18:13 (03:13 UTC)


TAF: chybějící

Stav a předpovědi počasí z více než 4 000 letišť (zprávy METAR a TAF).

Červené a žluté tečky na mapě představují dostupné meteorologické stanice.

Když kurzor umístíte na tečku, zobrazí se název stanice.

Pak kliknutím zobrazíte stav a předpověď počasí.

Chcete-li změnit mapu, kliknutím na zelené tlačítko se znaménkem +mapu přiblížíte, kliknutím na zelené tlačítko se znaménkem – mapu oddálíte a kliknutím na zelené šipky přejdete na sousední mapy.


METAR-TAF: